Time;durP1;ratioP1;P1;durP2;ratioP2;P2;SDS_P1;SDS_P2;PMS_P1;PMS_P2;Temp;Humidity;BMP_temperature;BMP_pressure;BME280_temperature;BME280_humidity;BME280_pressure;Samples;Min_cycle;Max_cycle;Signal;HPM_P1;HPM_P2
2022/09/11 00:01:46;;;;;;;7.93;5.70;;;;;;;12.71;88.10;100748.97;7393612;19;20010;-68
2022/09/11 00:04:15;;;;;;;10.13;5.00;;;;;;;12.71;88.44;100748.09;7394046;19;20489;-69
2022/09/11 00:06:50;;;;;;;6.53;5.45;;;;;;;12.69;88.60;100749.94;7395459;19;20353;-68
2022/09/11 00:09:21;;;;;;;7.63;5.90;;;;;;;12.66;88.52;100747.38;7394982;19;20077;-69
2022/09/11 00:11:49;;;;;;;6.03;5.30;;;;;;;12.64;88.96;100747.44;7392529;19;20477;-69
2022/09/11 00:14:18;;;;;;;7.43;5.80;;;;;;;12.63;89.03;100744.84;7394330;19;20081;-69
2022/09/11 00:16:53;;;;;;;6.90;6.20;;;;;;;12.61;89.48;100742.28;7394293;19;20011;-69
2022/09/11 00:19:22;;;;;;;7.18;6.47;;;;;;;12.60;89.76;100745.81;7394192;19;20362;-69
2022/09/11 00:21:54;;;;;;;6.68;5.93;;;;;;;12.58;89.92;100752.88;7393245;19;20025;-68
2022/09/11 00:24:25;;;;;;;8.88;6.88;;;;;;;12.57;90.47;100760.81;7393808;19;20031;-69
2022/09/11 00:26:53;;;;;;;8.13;7.30;;;;;;;12.54;90.92;100756.53;7393662;19;20495;-69
2022/09/11 00:29:22;;;;;;;8.82;7.10;;;;;;;12.53;90.56;100755.63;7392102;19;20010;-69
2022/09/11 00:31:50;;;;;;;8.10;6.60;;;;;;;12.52;91.13;100751.31;7393168;19;20018;-69
2022/09/11 00:34:19;;;;;;;8.70;7.50;;;;;;;12.51;90.93;100746.94;7393393;19;20427;-69
2022/09/11 00:36:47;;;;;;;8.73;7.10;;;;;;;12.51;90.72;100748.69;7393679;19;20021;-69
2022/09/11 00:39:16;;;;;;;9.75;7.95;;;;;;;12.52;91.33;100747.78;7393760;19;20074;-69
2022/09/11 00:41:48;;;;;;;13.00;8.10;;;;;;;12.52;91.18;100748.69;7392688;19;20029;-68
2022/09/11 00:44:46;;;;;;;11.50;8.63;;;;;;;12.53;91.03;100750.38;7393232;19;20014;-68
2022/09/11 00:47:19;;;;;;;9.15;7.75;;;;;;;12.52;91.06;100748.69;7392968;19;20477;-68
2022/09/11 00:49:52;;;;;;;8.00;6.75;;;;;;;12.52;90.99;100747.78;7396312;19;20078;-69
2022/09/11 00:52:26;;;;;;;7.68;6.88;;;;;;;12.52;91.21;100745.16;7398256;19;20018;-68
2022/09/11 00:54:59;;;;;;;8.77;7.35;;;;;;;12.53;90.93;100750.38;7401048;19;20019;-68
2022/09/11 00:57:35;;;;;;;7.45;6.55;;;;;;;12.50;91.09;100745.22;7400117;19;20082;-68
2022/09/11 01:00:06;;;;;;;8.05;6.90;;;;;;;12.49;91.08;100751.38;7400110;19;20355;-68
2022/09/11 01:02:37;;;;;;;7.95;7.10;;;;;;;12.47;90.95;100749.69;7398574;19;20037;-68
2022/09/11 01:05:06;;;;;;;7.35;6.63;;;;;;;12.48;91.16;100765.44;7400749;19;20154;-68
2022/09/11 01:07:37;;;;;;;9.27;6.95;;;;;;;12.45;91.04;100757.66;7397262;19;20074;-69
2022/09/11 01:10:07;;;;;;;6.75;6.15;;;;;;;12.45;91.00;100768.19;7399792;19;20010;-68
2022/09/11 01:12:49;;;;;;;8.25;6.47;;;;;;;12.42;91.02;100762.13;7397993;19;20391;-67
2022/09/11 01:15:24;;;;;;;7.63;6.82;;;;;;;12.39;91.23;100756.03;7399695;19;20021;-67
2022/09/11 01:18:04;;;;;;;9.07;6.95;;;;;;;12.39;91.22;100755.19;7400138;19;20030;-67
2022/09/11 01:20:42;;;;;;;8.13;6.50;;;;;;;12.37;91.16;100760.50;7400202;19;20014;-67
2022/09/11 01:23:40;;;;;;;5.93;5.32;;;;;;;12.35;91.03;100756.19;7396926;19;20372;-66
2022/09/11 01:26:31;;;;;;;6.55;5.95;;;;;;;12.33;91.10;100761.50;7400055;19;20010;-66
2022/09/11 01:29:07;;;;;;;8.73;6.28;;;;;;;12.30;90.98;100753.69;7398486;19;20011;-68
2022/09/11 01:31:44;;;;;;;20.70;15.35;;;;;;;12.28;90.97;100752.88;7399088;19;20089;-67
2022/09/11 01:34:22;;;;;;;6.80;5.55;;;;;;;12.26;90.89;100756.44;7398922;19;20485;-67
2022/09/11 01:36:55;;;;;;;11.00;6.03;;;;;;;12.21;90.65;100754.81;7399448;19;20086;-67
2022/09/11 01:39:31;;;;;;;9.32;6.68;;;;;;;12.19;90.81;100761.88;7399585;19;20019;-67
2022/09/11 01:42:04;;;;;;;8.63;7.63;;;;;;;12.16;90.86;100761.97;7396391;19;20367;-67
2022/09/11 01:44:40;;;;;;;10.55;9.40;;;;;;;12.14;91.05;100761.13;7399331;19;20010;-67
2022/09/11 01:47:12;;;;;;;8.15;7.30;;;;;;;12.12;91.04;100760.34;7399369;19;20025;-67
2022/09/11 01:49:46;;;;;;;8.60;7.70;;;;;;;12.10;91.14;100759.50;7398516;19;20544;-67
2022/09/11 01:52:20;;;;;;;13.13;8.50;;;;;;;12.09;91.38;100756.94;7398589;19;20034;-67
2022/09/11 01:54:53;;;;;;;10.55;7.72;;;;;;;12.07;91.20;100756.97;7398414;19;20359;-67
2022/09/11 01:57:28;;;;;;;8.43;7.55;;;;;;;12.06;91.33;100760.50;7398961;19;20011;-67
2022/09/11 02:00:03;;;;;;;9.07;8.05;;;;;;;12.04;91.36;100757.94;7398941;19;20037;-67
2022/09/11 02:02:38;;;;;;;9.00;8.10;;;;;;;12.02;91.40;100758.88;7395285;19;20448;-68
2022/09/11 02:05:10;;;;;;;10.98;8.52;;;;;;;12.01;91.56;100759.78;7395991;19;20087;-67
2022/09/11 02:07:43;;;;;;;9.98;8.93;;;;;;;11.99;91.75;100757.19;7397932;19;20074;-67
2022/09/11 02:10:18;;;;;;;11.23;9.95;;;;;;;11.98;91.98;100754.59;7398708;19;20018;-67
2022/09/11 02:12:54;;;;;;;12.18;10.38;;;;;;;11.98;92.28;100758.09;7396209;19;20014;-67
2022/09/11 02:15:30;;;;;;;12.65;9.82;;;;;;;11.96;92.39;100759.88;7398530;19;20018;-67
2022/09/11 02:18:04;;;;;;;13.05;10.30;;;;;;;11.95;92.58;100750.25;7398282;19;20025;-67
2022/09/11 02:20:33;;;;;;;;;;;;;;;11.95;92.97;100757.28;7397079;19;20017;-67
2022/09/11 02:23:01;;;;;;;12.68;10.98;;;;;;;11.94;93.03;100755.56;7396859;19;20066;-67
2022/09/11 02:25:30;;;;;;;14.10;11.25;;;;;;;11.93;92.76;100764.34;7397217;19;20489;-67
2022/09/11 02:28:05;;;;;;;11.80;10.38;;;;;;;11.92;92.76;100757.34;7396550;19;20007;-67
2022/09/11 02:30:44;;;;;;;12.82;10.02;;;;;;;11.92;92.85;100763.47;7397509;19;20170;-67
2022/09/11 02:33:28;;;;;;;11.02;9.55;;;;;;;11.90;92.92;100760.91;7395493;19;20025;-67
2022/09/11 02:36:19;;;;;;;13.00;9.38;;;;;;;11.90;92.89;100762.66;7397669;19;20074;-68
2022/09/11 02:38:59;;;;;;;13.40;9.50;;;;;;;11.87;92.87;100766.22;7397384;19;20035;-67
2022/09/11 02:41:35;;;;;;;10.68;9.68;;;;;;;11.84;92.93;100768.94;7396867;19;20082;-67
2022/09/11 02:44:14;;;;;;;12.40;9.98;;;;;;;11.83;92.86;100771.63;7395608;19;20108;-68
2022/09/11 02:47:13;;;;;;;11.43;9.95;;;;;;;11.81;92.93;100774.28;7397312;19;20078;-68
2022/09/11 02:49:51;;;;;;;13.90;9.48;;;;;;;11.77;92.81;100764.75;7395950;19;20018;-68
2022/09/11 02:52:29;;;;;;;12.88;10.23;;;;;;;11.76;92.97;100778.78;7395809;19;20382;-67
2022/09/11 02:55:07;;;;;;;12.32;9.80;;;;;;;11.73;92.80;100777.09;7397117;19;20017;-67
2022/09/11 02:57:42;;;;;;;16.55;10.38;;;;;;;11.72;92.83;100775.38;7396202;19;20552;-68
2022/09/11 03:00:12;;;;;;;24.85;10.70;;;;;;;11.72;93.06;100782.41;7395285;19;20113;-68
2022/09/11 03:02:44;;;;;;;22.98;10.55;;;;;;;11.71;92.96;100776.31;7394578;19;20045;-67
2022/09/11 03:05:13;;;;;;;28.40;10.88;;;;;;;11.67;93.08;100777.25;7396028;19;20015;-68
2022/09/11 03:07:41;;;;;;;38.67;10.95;;;;;;;11.68;93.14;100781.63;7396130;19;20022;-68
2022/09/11 03:10:12;;;;;;;59.28;11.93;;;;;;;11.67;93.45;100784.31;7395779;19;20489;-68
2022/09/11 03:12:41;;;;;;;27.60;11.77;;;;;;;11.65;93.35;100783.47;7394352;19;20029;-68
2022/09/11 03:15:11;;;;;;;35.05;11.52;;;;;;;11.65;93.84;100786.09;7395505;19;20007;-68
2022/09/11 03:17:40;;;;;;;57.75;12.43;;;;;;;11.63;94.01;100787.91;7395945;19;20078;-68
2022/09/11 03:20:11;;;;;;;43.10;12.73;;;;;;;11.61;94.22;100793.19;7396762;19;20015;-67
2022/09/11 03:22:40;;;;;;;33.08;12.75;;;;;;;11.60;94.50;100793.22;7394121;19;20028;-68
2022/09/11 03:25:09;;;;;;;23.38;12.15;;;;;;;11.59;94.58;100800.25;7395682;19;20014;-68
2022/09/11 03:27:39;;;;;;;17.63;11.85;;;;;;;11.58;94.90;100804.63;7395235;19;20019;-68
2022/09/11 03:30:09;;;;;;;21.10;12.18;;;;;;;11.57;95.51;100800.31;7394077;19;20014;-68
2022/09/11 03:32:37;;;;;;;16.05;12.43;;;;;;;11.55;95.76;100802.09;7393509;19;20019;-68
2022/09/11 03:35:07;;;;;;;18.30;12.57;;;;;;;11.55;95.85;100806.47;7395057;19;20081;-67
2022/09/11 03:37:38;;;;;;;23.38;13.07;;;;;;;11.53;96.34;100808.28;7393517;19;20026;-67
2022/09/11 03:40:07;;;;;;;18.20;12.48;;;;;;;11.52;95.80;100814.44;7393805;19;20018;-67
2022/09/11 03:42:36;;;;;;;23.77;12.38;;;;;;;11.52;96.25;100811.81;7393727;19;20082;-67
2022/09/11 03:45:05;;;;;;;25.35;12.68;;;;;;;11.53;95.90;100809.16;7393197;19;20082;-67
2022/09/11 03:47:33;;;;;;;32.28;14.05;;;;;;;11.53;96.22;100814.41;7395109;19;20086;-67
2022/09/11 03:50:02;;;;;;;30.23;13.85;;;;;;;11.53;96.86;100809.16;7394384;19;20017;-67
2022/09/11 03:52:30;;;;;;;24.55;13.50;;;;;;;11.50;96.99;100819.75;7394109;19;20023;-67
2022/09/11 03:55:01;;;;;;;23.13;13.32;;;;;;;11.49;97.54;100817.16;7394213;19;20011;-67
2022/09/11 03:57:30;;;;;;;22.65;13.80;;;;;;;11.48;96.99;100818.06;7394758;19;20014;-67
2022/09/11 04:00:00;;;;;;;22.48;14.20;;;;;;;11.48;96.88;100823.31;7392889;19;20070;-67
2022/09/11 04:02:28;;;;;;;29.20;14.57;;;;;;;11.46;97.23;100818.09;7393017;19;20018;-67
2022/09/11 04:04:57;;;;;;;30.52;14.50;;;;;;;11.50;98.17;100835.50;7392953;19;20090;-67
2022/09/11 04:07:26;;;;;;;47.92;15.23;;;;;;;11.51;98.29;100837.25;7394154;19;20552;-68
2022/09/11 04:09:54;;;;;;;36.15;16.88;;;;;;;11.51;97.94;100839.88;7392154;19;20525;-67
2022/09/11 04:12:25;;;;;;;37.13;20.95;;;;;;;11.50;97.51;100837.25;7393270;19;20031;-67
2022/09/11 04:14:53;;;;;;;38.17;17.02;;;;;;;11.53;97.59;100840.69;7394760;19;20087;-67
2022/09/11 04:17:23;;;;;;;35.47;18.08;;;;;;;11.55;97.59;100846.78;7393881;19;20427;-67
2022/09/11 04:19:51;;;;;;;28.90;17.60;;;;;;;11.55;97.88;100838.88;7393867;19;20496;-67
2022/09/11 04:22:20;;;;;;;26.73;16.55;;;;;;;11.61;97.98;100834.38;7391836;19;20022;-66
2022/09/11 04:24:48;;;;;;;34.22;16.65;;;;;;;11.61;98.50;100837.84;7394958;19;20078;-67
2022/09/11 04:27:17;;;;;;;36.13;16.50;;;;;;;11.63;98.24;100840.47;7400966;19;20430;-67
2022/09/11 04:29:48;;;;;;;27.73;15.82;;;;;;;11.64;98.79;100842.16;7399197;19;20041;-67
2022/09/11 04:32:17;;;;;;;36.22;19.48;;;;;;;11.66;98.32;100841.22;7399734;19;20079;-67
2022/09/11 04:34:46;;;;;;;30.95;21.17;;;;;;;11.69;98.54;100845.53;7400626;19;20011;-67
2022/09/11 04:37:15;;;;;;;44.65;19.02;;;;;;;11.71;100.00;100844.63;7400935;19;20074;-67
2022/09/11 04:39:43;;;;;;;37.35;20.48;;;;;;;11.74;100.00;100852.44;7401161;19;20089;-67
2022/09/11 04:42:12;;;;;;;45.60;20.83;;;;;;;11.78;100.00;100857.59;7398252;19;20074;-68
2022/09/11 04:44:40;;;;;;;32.85;21.15;;;;;;;11.81;100.00;100849.66;7399313;19;20078;-67
2022/09/11 04:47:11;;;;;;;73.93;21.77;;;;;;;11.83;100.00;100847.88;7397928;19;20495;-67
2022/09/11 04:49:40;;;;;;;45.30;20.90;;;;;;;11.88;100.00;100853.88;7400520;19;20077;-67
2022/09/11 04:52:08;;;;;;;65.18;22.58;;;;;;;11.89;100.00;100851.19;7399370;19;20022;-67
2022/09/11 04:54:37;;;;;;;52.40;24.00;;;;;;;11.90;100.00;100850.28;7398080;19;20086;-67
2022/09/11 04:57:06;;;;;;;48.80;23.63;;;;;;;11.92;100.00;100852.00;7400546;19;20021;-67
2022/09/11 04:59:34;;;;;;;38.13;22.08;;;;;;;11.95;100.00;100863.31;7400574;19;20091;-67
2022/09/11 05:02:03;;;;;;;66.88;25.20;;;;;;;11.97;100.00;100866.78;7398692;19;20015;-67
2022/09/11 05:04:34;;;;;;;40.72;24.42;;;;;;;11.99;100.00;100872.00;7397805;19;20090;-68
2022/09/11 05:07:02;;;;;;;47.10;24.60;;;;;;;12.02;100.00;100869.31;7400593;19;20070;-67
2022/09/11 05:09:31;;;;;;;37.13;23.60;;;;;;;12.02;100.00;100877.22;7400028;19;20025;-67
2022/09/11 05:12:01;;;;;;;49.50;23.63;;;;;;;12.04;100.00;100872.75;7398976;19;20039;-67
2022/09/11 05:14:31;;;;;;;74.45;25.33;;;;;;;12.05;100.00;100883.22;7400902;19;20010;-67
2022/09/11 05:17:00;;;;;;;40.63;24.88;;;;;;;12.06;100.00;100882.31;7400023;19;20015;-68
2022/09/11 05:19:28;;;;;;;45.85;26.23;;;;;;;12.08;100.00;100890.19;7399695;19;20010;-67
2022/09/11 05:21:59;;;;;;;70.90;26.88;;;;;;;12.08;100.00;100895.47;7398747;19;20078;-67
2022/09/11 05:24:28;;;;;;;53.45;26.90;;;;;;;12.08;100.00;100898.09;7397576;19;20039;-67
2022/09/11 05:26:57;;;;;;;57.03;25.95;;;;;;;12.08;100.00;100899.84;7399944;19;20026;-67
2022/09/11 05:29:28;;;;;;;60.03;27.27;;;;;;;12.08;100.00;100894.56;7398001;19;20033;-67
2022/09/11 05:31:57;;;;;;;71.95;28.95;;;;;;;12.09;100.00;100912.94;7397793;19;20481;-67
2022/09/11 05:34:27;;;;;;;64.93;30.50;;;;;;;12.08;100.00;100911.25;7398920;19;20029;-66
2022/09/11 05:37:01;;;;;;;82.70;31.70;;;;;;;12.07;100.00;100920.03;7398943;19;20082;-67
2022/09/11 05:39:29;;;;;;;63.80;30.70;;;;;;;12.09;100.00;100917.34;7397459;19;20018;-67
2022/09/11 05:41:57;;;;;;;65.00;29.75;;;;;;;12.08;100.00;100929.66;7397774;19;20497;-68
2022/09/11 05:44:26;;;;;;;63.53;31.33;;;;;;;12.08;100.00;100936.66;7397853;19;20031;-67
2022/09/11 05:46:54;;;;;;;85.85;33.45;;;;;;;12.10;100.00;100940.13;7398875;19;20014;-67
2022/09/11 05:49:24;;;;;;;80.93;32.72;;;;;;;12.08;100.00;100928.75;7398833;19;20078;-68
2022/09/11 05:51:52;;;;;;;69.78;31.65;;;;;;;12.13;100.00;100954.06;7396310;19;20470;-67
2022/09/11 05:54:23;;;;;;;84.85;32.50;;;;;;;12.15;100.00;100949.63;7398676;19;20031;-68
2022/09/11 05:56:53;;;;;;;70.72;33.70;;;;;;;12.18;100.00;100951.31;7398777;19;20093;-67
2022/09/11 05:59:21;;;;;;;62.13;32.88;;;;;;;12.20;100.00;100957.41;7399381;19;20041;-68
2022/09/11 06:01:50;;;;;;;64.38;34.70;;;;;;;12.23;100.00;100959.94;7395623;19;20098;-67
2022/09/11 06:04:20;;;;;;;65.85;33.47;;;;;;;12.27;100.00;100972.13;7397510;19;20070;-67
2022/09/11 06:06:48;;;;;;;64.10;32.83;;;;;;;12.30;100.00;100971.19;7397881;19;20492;-68
2022/09/11 06:09:17;;;;;;;60.30;33.25;;;;;;;12.34;100.00;100970.19;7398095;19;20022;-67
2022/09/11 06:11:48;;;;;;;56.17;31.85;;;;;;;12.36;100.00;100964.00;7395501;19;20078;-67
2022/09/11 06:14:16;;;;;;;51.80;29.25;;;;;;;12.40;100.00;100970.03;7397717;19;20082;-67
2022/09/11 06:16:46;;;;;;;45.50;29.10;;;;;;;12.44;100.00;100976.09;7395893;19;20078;-67
2022/09/11 06:19:15;;;;;;;45.53;28.83;;;;;;;12.46;100.00;100975.16;7397985;19;20029;-67
2022/09/11 06:21:44;;;;;;;42.75;27.83;;;;;;;12.49;100.00;100980.31;7396545;19;20396;-68
2022/09/11 06:24:12;;;;;;;35.55;25.95;;;;;;;12.49;100.00;100975.06;7395584;19;20082;-67
2022/09/11 06:26:45;;;;;;;39.67;27.30;;;;;;;12.55;100.00;100971.41;7397496;19;20029;-67
2022/09/11 06:29:16;;;;;;;37.13;26.92;;;;;;;12.57;100.00;100977.50;7395698;19;20013;-67
2022/09/11 06:31:44;;;;;;;40.33;26.38;;;;;;;12.62;100.00;100974.75;7395684;19;20018;-67
2022/09/11 06:34:13;;;;;;;40.28;24.95;;;;;;;12.67;100.00;100978.13;7396653;19;20485;-67
2022/09/11 06:36:42;;;;;;;28.85;21.95;;;;;;;12.71;100.00;100985.00;7396668;19;20082;-67
2022/09/11 06:39:11;;;;;;;27.20;21.60;;;;;;;12.76;100.00;100983.13;7396797;19;20030;-67
2022/09/11 06:41:46;;;;;;;26.25;20.75;;;;;;;12.84;100.00;100982.94;7396172;19;20461;-67
2022/09/11 06:44:17;;;;;;;30.67;21.08;;;;;;;12.94;100.00;100980.91;7397054;19;20082;-67
2022/09/11 06:46:46;;;;;;;24.92;20.02;;;;;;;13.02;100.00;100984.19;7396223;19;20010;-68
2022/09/11 06:49:15;;;;;;;24.33;20.52;;;;;;;13.07;100.00;100986.69;7394819;19;20454;-68
2022/09/11 06:51:43;;;;;;;27.10;19.23;;;;;;;13.09;100.00;100988.38;7396029;19;20025;-68
2022/09/11 06:54:11;;;;;;;25.92;17.13;;;;;;;13.11;99.94;100989.19;7396272;19;20561;-68
2022/09/11 06:56:40;;;;;;;22.45;16.58;;;;;;;13.13;99.96;100990.03;7396524;19;20074;-68
2022/09/11 06:59:09;;;;;;;26.38;16.98;;;;;;;13.16;99.56;100987.28;7395983;19;20485;-67
2022/09/11 07:01:40;;;;;;;24.05;17.42;;;;;;;13.19;99.53;100987.22;7396229;19;20092;-67
2022/09/11 07:04:09;;;;;;;24.65;16.35;;;;;;;13.24;99.63;100992.34;7396595;19;20015;-67
2022/09/11 07:06:37;;;;;;;26.27;16.95;;;;;;;13.28;99.24;100990.47;7396256;19;20019;-67
2022/09/11 07:09:06;;;;;;;26.17;15.65;;;;;;;13.32;99.08;100993.00;7394208;19;20014;-67
2022/09/11 07:11:37;;;;;;;26.33;16.75;;;;;;;13.35;98.83;100992.88;7395508;19;20019;-67
2022/09/11 07:14:07;;;;;;;27.25;15.75;;;;;;;13.36;98.72;100994.63;7396519;19;20031;-67
2022/09/11 07:16:36;;;;;;;24.48;15.85;;;;;;;13.40;98.79;100998.06;7395590;19;20015;-67
2022/09/11 07:19:09;;;;;;;25.70;15.93;;;;;;;13.41;98.28;100991.88;7395502;19;20502;-67
2022/09/11 07:21:37;;;;;;;26.90;16.75;;;;;;;13.43;98.47;101005.00;7394094;19;20078;-67
2022/09/11 07:24:06;;;;;;;27.38;16.55;;;;;;;13.43;98.15;101003.22;7394848;19;20550;-66
2022/09/11 07:26:35;;;;;;;29.23;16.95;;;;;;;13.45;98.37;101003.22;7394962;19;20032;-67
2022/09/11 07:29:04;;;;;;;26.90;16.98;;;;;;;13.47;98.39;101009.28;7393132;19;20031;-68
2022/09/11 07:31:41;;;;;;;34.67;18.17;;;;;;;13.48;98.09;101011.88;7393452;19;20029;-67
2022/09/11 07:34:12;;;;;;;31.95;17.65;;;;;;;13.50;98.19;101017.97;7395783;19;20045;-67
2022/09/11 07:36:41;;;;;;;31.92;18.98;;;;;;;13.51;98.26;101018.84;7393359;19;20018;-67
2022/09/11 07:39:09;;;;;;;33.15;19.30;;;;;;;13.53;98.11;101027.53;7394877;19;20552;-67
2022/09/11 07:41:38;;;;;;;34.00;18.75;;;;;;;13.55;98.17;101027.50;7393989;19;20481;-67
2022/09/11 07:44:06;;;;;;;32.45;18.00;;;;;;;13.57;98.20;101025.69;7394646;19;20091;-66
2022/09/11 07:46:39;;;;;;;35.03;17.92;;;;;;;13.56;98.32;101019.56;7393020;19;20086;-67
2022/09/11 07:49:08;;;;;;;32.28;18.83;;;;;;;13.57;98.41;101020.41;7395350;19;20028;-67
2022/09/11 07:51:40;;;;;;;29.50;17.15;;;;;;;13.59;98.30;101019.47;7394130;19;20018;-66
2022/09/11 07:54:10;;;;;;;33.33;18.48;;;;;;;13.60;98.21;101021.19;7395032;19;20078;-66
2022/09/11 07:56:40;;;;;;;34.58;18.83;;;;;;;13.65;97.98;101021.91;7395089;19;20018;-67
2022/09/11 07:59:10;;;;;;;32.70;17.45;;;;;;;13.72;98.04;101021.72;7395632;19;20385;-67
2022/09/11 08:01:38;;;;;;;32.45;17.58;;;;;;;13.77;98.35;101030.38;7401490;19;20439;-67
2022/09/11 08:04:09;;;;;;;33.70;19.25;;;;;;;13.80;98.03;101031.13;7399064;19;20380;-67
2022/09/11 08:06:40;;;;;;;32.25;18.67;;;;;;;13.85;97.72;101039.78;7402460;19;20090;-67
2022/09/11 08:09:11;;;;;;;32.53;17.13;;;;;;;13.88;97.46;101046.72;7402581;19;20050;-67
2022/09/11 08:11:42;;;;;;;33.92;17.63;;;;;;;13.91;97.28;101040.50;7401418;19;20015;-67
2022/09/11 08:14:13;;;;;;;31.13;18.02;;;;;;;13.93;97.17;101052.72;7401978;19;20022;-67
2022/09/11 08:16:42;;;;;;;31.05;18.08;;;;;;;13.95;97.08;101056.19;7402331;19;20451;-67
2022/09/11 08:19:16;;;;;;;31.13;18.77;;;;;;;13.98;96.90;101053.44;7401676;19;20045;-67
2022/09/11 08:21:47;;;;;;;30.67;17.73;;;;;;;14.02;96.93;101056.84;7401033;19;20070;-67
2022/09/11 08:24:16;;;;;;;30.58;18.02;;;;;;;14.07;96.49;101064.63;7402588;19;20018;-67
2022/09/11 08:26:45;;;;;;;31.58;18.33;;;;;;;14.11;96.41;101066.25;7400866;19;20014;-67
2022/09/11 08:29:14;;;;;;;28.50;18.00;;;;;;;14.18;96.38;101067.78;7401590;19;20031;-67
2022/09/11 08:31:43;;;;;;;30.27;18.70;;;;;;;14.25;95.94;101069.31;7396276;19;20010;-67
2022/09/11 08:34:12;;;;;;;33.00;19.20;;;;;;;14.31;95.56;101068.25;7398588;19;20381;-67
2022/09/11 08:36:40;;;;;;;28.77;18.10;;;;;;;14.37;95.12;101078.63;7397993;19;20594;-68
2022/09/11 08:39:11;;;;;;;29.85;17.75;;;;;;;14.41;95.33;101071.47;7398310;19;20425;-67
2022/09/11 08:41:47;;;;;;;31.85;18.33;;;;;;;14.44;94.68;101069.56;7397825;19;20087;-67
2022/09/11 08:44:21;;;;;;;27.88;17.25;;;;;;;14.46;94.37;101069.53;7398024;19;20488;-67
2022/09/11 08:46:54;;;;;;;26.73;17.27;;;;;;;14.45;94.12;101076.59;7396410;19;20018;-67
2022/09/11 08:49:28;;;;;;;28.40;16.73;;;;;;;14.49;94.19;101082.63;7398496;19;20026;-68
2022/09/11 08:51:59;;;;;;;29.48;18.05;;;;;;;14.51;94.16;101078.16;7395786;19;20086;-67
2022/09/11 08:54:33;;;;;;;29.40;17.15;;;;;;;14.54;93.80;101074.56;7397741;19;20079;-68
2022/09/11 08:57:07;;;;;;;;;;;;;;;14.56;93.25;101081.53;7396215;19;20496;-66
2022/09/11 08:59:51;;;;;;;33.17;17.73;;;;;;;14.60;93.61;101084.94;7398231;19;19918;-66
2022/09/11 09:02:40;;;;;;;27.63;17.00;;;;;;;14.66;93.30;101080.34;7396492;19;20025;-66
2022/09/11 09:05:20;;;;;;;25.38;15.00;;;;;;;14.76;93.40;101082.66;7397405;19;20023;-67
2022/09/11 09:08:03;;;;;;;26.05;16.40;;;;;;;14.85;92.68;101085.00;7398013;19;20014;-67
2022/09/11 09:10:49;;;;;;;22.30;16.13;;;;;;;14.96;92.38;101071.41;7397332;19;20015;-69
2022/09/11 09:13:44;;;;;;;25.30;16.80;;;;;;;15.07;91.90;101071.88;7396277;19;20014;-69
2022/09/11 09:16:28;;;;;;;23.52;14.63;;;;;;;15.18;91.20;101075.91;7398777;19;20428;-69
2022/09/11 09:19:02;;;;;;;24.75;16.10;;;;;;;15.29;91.03;101068.47;7397507;19;20047;-70
2022/09/11 09:21:44;;;;;;;22.08;14.43;;;;;;;15.41;90.83;101075.13;7396158;19;20019;-69
2022/09/11 09:24:20;;;;;;;23.83;14.35;;;;;;;15.54;90.37;101076.38;7396471;19;20361;-69
2022/09/11 09:26:54;;;;;;;19.80;13.90;;;;;;;15.68;88.20;101083.78;7394704;19;20011;-70
2022/09/11 09:29:25;;;;;;;17.77;12.98;;;;;;;15.83;87.99;101071.78;7393907;19;20481;-69
2022/09/11 09:32:12;;;;;;;18.85;14.15;;;;;;;15.96;86.94;101073.06;6264551;19;22207173;-70
2022/09/11 09:34:44;;;;;;;19.67;13.30;;;;;;;16.13;87.17;101077.66;7398662;19;20560;-69
2022/09/11 09:37:19;;;;;;;19.85;12.25;;;;;;;16.27;85.83;101077.13;7398615;19;20484;-69
2022/09/11 09:39:48;;;;;;;17.48;13.13;;;;;;;16.40;84.53;101084.56;7400001;19;20018;-69
2022/09/11 09:42:43;;;;;;;15.20;11.40;;;;;;;16.50;80.45;101085.06;7395962;19;20015;-69
2022/09/11 09:45:33;;;;;;;17.88;11.88;;;;;;;16.59;80.60;101082.91;7399410;19;20031;-69
2022/09/11 09:48:02;;;;;;;16.98;11.55;;;;;;;16.65;81.47;101086.22;7398039;19;20544;-68
2022/09/11 09:50:34;;;;;;;21.77;12.98;;;;;;;16.71;82.04;101085.97;7398400;19;20034;-68
2022/09/11 09:53:11;;;;;;;15.65;11.05;;;;;;;16.81;81.49;101081.09;7396117;19;20018;-69
2022/09/11 09:55:41;;;;;;;16.05;11.10;;;;;;;16.86;80.97;101089.75;7398716;19;20023;-69
2022/09/11 09:58:12;;;;;;;16.17;11.10;;;;;;;16.90;80.91;101094.00;7399030;19;20019;-69
2022/09/11 10:00:42;;;;;;;12.60;9.68;;;;;;;16.92;80.26;101089.50;7398517;19;20074;-70
2022/09/11 10:03:20;;;;;;;12.88;10.32;;;;;;;16.91;77.50;101085.16;7395467;19;20018;-69
2022/09/11 10:05:53;;;;;;;14.80;10.30;;;;;;;16.96;79.57;101087.56;7397159;19;20366;-69
2022/09/11 10:08:34;;;;;;;14.32;9.93;;;;;;;17.02;78.21;101088.19;7398749;19;20006;-70
2022/09/11 10:11:05;;;;;;;16.67;10.73;;;;;;;17.09;78.71;101094.94;7397663;19;20015;-73
2022/09/11 10:13:40;;;;;;;16.63;11.70;;;;;;;17.12;78.33;101093.94;7396275;19;20014;-71
2022/09/11 10:16:22;;;;;;;18.00;11.50;;;;;;;17.15;79.49;101096.47;7397962;19;20030;-71
2022/09/11 10:18:51;;;;;;;17.00;11.40;;;;;;;17.17;79.43;101091.09;7397741;19;20017;-70
2022/09/11 10:21:28;;;;;;;14.95;10.98;;;;;;;17.21;79.18;101098.84;7396952;19;20049;-70
2022/09/11 10:23:59;;;;;;;24.13;16.52;;;;;;;17.29;78.95;101095.88;7395433;19;20021;-70
2022/09/11 10:26:33;;;;;;;16.20;12.00;;;;;;;17.36;77.97;101099.97;7396419;19;20019;-70
2022/09/11 10:29:17;;;;;;;16.65;11.10;;;;;;;17.42;77.09;101097.03;7397908;19;20014;-71
2022/09/11 10:31:51;;;;;;;16.42;11.80;;;;;;;17.48;76.37;101095.03;7395921;19;20014;-71
2022/09/11 10:34:22;;;;;;;15.07;10.57;;;;;;;17.52;77.01;101096.63;7397089;19;20019;-71
2022/09/11 10:36:55;;;;;;;15.05;11.07;;;;;;;17.56;76.75;101099.03;7397056;19;20019;-71
2022/09/11 10:39:26;;;;;;;12.95;9.73;;;;;;;17.60;76.09;101097.13;7395108;19;20017;-75
2022/09/11 10:41:58;;;;;;;15.95;9.63;;;;;;;17.57;73.47;101100.78;7395266;19;20035;-72
2022/09/11 10:44:30;;;;;;;14.63;9.98;;;;;;;17.62;75.18;101113.00;7397229;19;20010;-72
2022/09/11 10:47:05;;;;;;;16.00;11.10;;;;;;;17.61;74.34;101114.75;7395108;19;20014;-70
2022/09/11 10:49:35;;;;;;;14.10;9.93;;;;;;;17.65;75.57;101108.38;7397217;19;20014;-71
2022/09/11 10:52:17;;;;;;;12.32;9.75;;;;;;;17.72;75.07;101107.19;7395568;19;20011;-72
2022/09/11 10:55:01;;;;;;;12.90;9.23;;;;;;;17.86;73.82;101114.50;7396799;19;20070;-72
2022/09/11 10:57:35;;;;;;;23.45;11.52;;;;;;;17.98;74.43;101109.59;7394840;19;20015;-72
2022/09/11 11:00:14;;;;;;;13.88;10.93;;;;;;;18.04;73.93;101104.84;7394845;19;20379;-72
2022/09/11 11:02:45;;;;;;;14.30;10.68;;;;;;;18.08;74.37;101110.88;7394280;19;20014;-71
2022/09/11 11:05:23;;;;;;;16.92;11.80;;;;;;;18.03;74.56;101110.22;7395757;19;20022;-72
2022/09/11 11:08:16;;;;;;;14.30;10.82;;;;;;;17.99;74.76;101106.84;7396308;19;20022;-73
2022/09/11 11:11:02;;;;;;;16.30;10.60;;;;;;;17.98;73.50;101115.75;7396107;19;20070;-72
2022/09/11 11:13:48;;;;;;;14.52;9.43;;;;;;;18.02;73.34;101113.81;7394275;19;20018;-71
2022/09/11 11:16:28;;;;;;;13.85;9.98;;;;;;;18.09;72.82;101106.44;7394644;19;20014;-70
2022/09/11 11:19:29;;;;;;;10.00;8.43;;;;;;;18.22;72.73;101115.53;7396007;19;20018;-71
2022/09/11 11:22:08;;;;;;;12.80;9.43;;;;;;;18.29;72.02;101124.06;7395280;19;20039;-72
2022/09/11 11:24:55;;;;;;;17.05;9.13;;;;;;;18.36;72.65;101112.19;7393902;19;20081;-72
2022/09/11 11:27:50;;;;;;;11.32;9.05;;;;;;;18.46;71.42;101112.63;7393569;19;20086;-72
2022/09/11 11:30:21;;;;;;;10.77;8.77;;;;;;;18.56;72.04;101108.56;7393161;19;20018;-71
2022/09/11 11:33:16;;;;;;;12.02;9.20;;;;;;;18.63;70.30;101104.69;7393319;19;20035;-71
2022/09/11 11:35:51;;;;;;;11.23;9.43;;;;;;;18.70;70.39;101102.56;7394716;19;20014;-71
2022/09/11 11:38:27;;;;;;;10.93;8.48;;;;;;;18.72;69.49;101101.53;7394816;19;20014;-71